Time;durP1;ratioP1;P1;durP2;ratioP2;P2;SDS_P1;SDS_P2;PMS_P1;PMS_P2;Temp;Humidity;BMP_temperature;BMP_pressure;BME280_temperature;BME280_humidity;BME280_pressure;Samples;Min_cycle;Max_cycle;Signal;HPM_P1;HPM_P2
2022/07/03 00:01:38;;;;;;;0.90;0.47;;;20.50;99.90;;;;;;5136929;27;20486;-75
2022/07/03 00:04:05;;;;;;;0.80;0.50;;;20.50;99.90;;;;;;5136302;27;20459;-75
2022/07/03 00:06:34;;;;;;;0.70;0.40;;;20.50;99.90;;;;;;5136431;27;20536;-75
2022/07/03 00:09:04;;;;;;;0.93;0.53;;;20.50;99.90;;;;;;5136691;27;20913;-75
2022/07/03 00:11:31;;;;;;;1.00;0.47;;;20.40;99.90;;;;;;5137310;27;20494;-75
2022/07/03 00:13:58;;;;;;;0.83;0.50;;;20.30;99.90;;;;;;5136811;27;20810;-74
2022/07/03 00:16:25;;;;;;;0.60;0.40;;;20.30;99.90;;;;;;5136529;27;20531;-75
2022/07/03 00:18:52;;;;;;;0.60;0.40;;;20.20;99.90;;;;;;5137477;27;20542;-75
2022/07/03 00:21:24;;;;;;;0.60;0.50;;;20.10;99.90;;;;;;5137520;27;20896;-75
2022/07/03 00:23:57;;;;;;;0.83;0.50;;;20.10;1.00;;;;;;5136615;27;20479;-75
2022/07/03 00:26:26;;;;;;;2.10;0.40;;;20.00;1.00;;;;;;5136991;27;20522;-75
2022/07/03 00:28:55;;;;;;;1.83;0.40;;;20.00;1.00;;;;;;5136641;27;20836;-75
2022/07/03 00:31:24;;;;;;;2.20;0.43;;;20.00;1.00;;;;;;5135804;27;20522;-75
2022/07/03 00:33:55;;;;;;;0.80;0.50;;;20.00;1.00;;;;;;5136401;27;20894;-75
2022/07/03 00:36:22;;;;;;;0.77;0.47;;;19.90;1.00;;;;;;5137801;27;20902;-75
2022/07/03 00:38:50;;;;;;;0.50;0.40;;;20.00;1.00;;;;;;5139755;27;20546;-75
2022/07/03 00:41:30;;;;;;;0.60;0.43;;;19.90;1.00;;;;;;5140053;27;20443;-75
2022/07/03 00:43:58;;;;;;;0.57;0.43;;;19.90;1.00;;;;;;5139608;27;20992;-75
2022/07/03 00:46:27;;;;;;;0.90;0.50;;;19.80;1.00;;;;;;5139761;27;20774;-75
2022/07/03 00:48:56;;;;;;;1.30;0.40;;;19.80;99.90;;;;;;5140146;27;20500;-75
2022/07/03 00:51:24;;;;;;;0.63;0.50;;;19.70;99.90;;;;;;5139436;27;20721;-75
2022/07/03 00:53:53;;;;;;;0.70;0.50;;;19.70;99.90;;;;;;5139309;27;20594;-75
2022/07/03 00:56:24;;;;;;;0.97;0.50;;;19.60;99.90;;;;;;5139221;27;20572;-75
2022/07/03 00:58:54;;;;;;;0.70;0.40;;;19.60;99.90;;;;;;5140173;27;20440;-75
2022/07/03 01:01:23;;;;;;;1.20;0.40;;;19.50;1.00;;;;;;5139929;27;20450;-75
2022/07/03 01:03:55;;;;;;;0.60;0.40;;;19.50;1.00;;;;;;5140405;27;20494;-74
2022/07/03 01:06:23;;;;;;;2.03;0.50;;;19.50;1.00;;;;;;5140657;27;20789;-75
2022/07/03 01:08:51;;;;;;;0.70;0.47;;;19.50;1.00;;;;;;5140504;27;20949;-75
2022/07/03 01:11:22;;;;;;;0.53;0.40;;;19.40;1.00;;;;;;5140301;27;20484;-75
2022/07/03 01:14:05;;;;;;;0.60;0.40;;;19.40;99.90;;;;;;5140057;27;20542;-75
2022/07/03 01:16:37;;;;;;;0.90;0.50;;;19.40;99.90;;;;;;5139641;27;20909;-75
2022/07/03 01:19:18;;;;;;;0.70;0.40;;;19.40;1.00;;;;;;5139564;27;20509;-75
2022/07/03 01:21:56;;;;;;;0.60;0.50;;;19.40;99.90;;;;;;5137783;27;20466;-75
2022/07/03 01:24:44;;;;;;;0.63;0.47;;;19.40;1.00;;;;;;5138237;27;20447;-75
2022/07/03 01:27:19;;;;;;;0.90;0.40;;;19.30;1.00;;;;;;5138618;27;20447;-75
2022/07/03 01:29:55;;;;;;;0.80;0.50;;;19.30;1.00;;;;;;5138144;27;20443;-75
2022/07/03 01:32:26;;;;;;;0.63;0.50;;;19.30;99.90;;;;;;5138420;27;20661;-75
2022/07/03 01:34:54;;;;;;;0.60;0.40;;;19.30;99.90;;;;;;5139115;27;20863;-75
2022/07/03 01:37:25;;;;;;;0.60;0.43;;;19.30;1.00;;;;;;5139419;27;20479;-75
2022/07/03 01:39:54;;;;;;;0.53;0.40;;;19.30;99.90;;;;;;5138872;27;20777;-75
2022/07/03 01:42:25;;;;;;;0.57;0.40;;;19.30;1.00;;;;;;5139127;27;20730;-75
2022/07/03 01:44:53;;;;;;;0.57;0.43;;;19.30;99.90;;;;;;5139221;27;20479;-75
2022/07/03 01:47:24;;;;;;;0.50;0.40;;;19.40;99.90;;;;;;5138198;27;20456;-75
2022/07/03 01:49:52;;;;;;;0.60;0.30;;;19.40;99.90;;;;;;5138565;27;20722;-75
2022/07/03 01:52:21;;;;;;;0.47;0.30;;;19.40;1.00;;;;;;5137583;27;20452;-75
2022/07/03 01:54:49;;;;;;;0.50;0.30;;;19.50;1.00;;;;;;5137605;27;20435;-75
2022/07/03 01:57:16;;;;;;;0.60;0.47;;;19.50;1.00;;;;;;5138872;27;20499;-74
2022/07/03 01:59:44;;;;;;;0.60;0.50;;;19.50;99.90;;;;;;5137579;27;20480;-74
2022/07/03 02:02:25;;;;;;;1.40;0.40;;;19.70;99.90;;;;;;5138290;27;20487;-75
2022/07/03 02:04:59;;;;;;;0.67;0.47;;;19.80;99.90;;;;;;5138019;27;20493;-74
2022/07/03 02:07:40;;;;;;;0.63;0.50;;;19.70;1.00;;;;;;5137125;27;20542;-75
2022/07/03 02:10:09;;;;;;;0.60;0.40;;;19.80;1.00;;;;;;5129797;27;20526;-75
2022/07/03 02:12:40;;;;;;;0.50;0.40;;;19.80;9.40;;;;;;5138157;27;20455;-75
2022/07/03 02:15:10;;;;;;;0.60;0.37;;;19.80;1.00;;;;;;5138198;27;20527;-74
2022/07/03 02:17:39;;;;;;;0.60;0.40;;;19.80;1.00;;;;;;5138322;27;20744;-75
2022/07/03 02:20:08;;;;;;;0.70;0.40;;;19.80;1.00;;;;;;5137966;27;20534;-74
2022/07/03 02:22:37;;;;;;;0.80;0.40;;;19.70;1.00;;;;;;5139137;27;20455;-75
2022/07/03 02:25:06;;;;;;;0.70;0.50;;;19.60;99.90;;;;;;5138602;27;20563;-75
2022/07/03 02:27:43;;;;;;;0.63;0.40;;;19.60;99.90;;;;;;5138880;27;20487;-75
2022/07/03 02:30:13;;;;;;;0.67;0.50;;;19.60;1.00;;;;;;5138493;27;20448;-75
2022/07/03 02:32:44;;;;;;;0.70;0.50;;;19.70;1.00;;;;;;5137877;27;20455;-75
2022/07/03 02:35:16;;;;;;;0.80;0.43;;;19.70;99.90;;;;;;5138327;27;20508;-75
2022/07/03 02:37:49;;;;;;;1.20;0.50;;;19.60;1.00;;;;;;5137963;27;20508;-75
2022/07/03 02:40:23;;;;;;;0.90;0.50;;;19.50;1.00;;;;;;5137120;27;20807;-75
2022/07/03 02:43:03;;;;;;;2.03;0.50;;;19.60;1.00;;;;;;5136660;27;20533;-74
2022/07/03 02:45:41;;;;;;;0.60;0.40;;;19.60;1.00;;;;;;5136731;27;20562;-75
2022/07/03 02:48:17;;;;;;;0.70;0.40;;;19.50;99.90;;;;;;5137043;27;20528;-74
2022/07/03 02:50:51;;;;;;;0.70;0.50;;;19.50;1.00;;;;;;5137124;27;20535;-75
2022/07/03 02:53:30;;;;;;;0.70;0.50;;;19.60;99.90;;;;;;5137991;27;20850;-75
2022/07/03 02:56:08;;;;;;;0.80;0.50;;;19.60;1.00;;;;;;5138043;27;20947;-74
2022/07/03 02:59:00;;;;;;;2.17;0.60;;;19.70;1.00;;;;;;5137800;27;21016;-75
2022/07/03 03:01:39;;;;;;;0.63;0.50;;;19.70;5.20;;;;;;5138240;27;20576;-74
2022/07/03 03:04:13;;;;;;;0.70;0.40;;;19.60;99.90;;;;;;5138311;27;20933;-74
2022/07/03 03:06:48;;;;;;;0.90;0.60;;;19.60;99.90;;;;;;5138341;27;20518;-75
2022/07/03 03:09:21;;;;;;;0.83;0.50;;;19.60;31.20;;;;;;5137554;27;20530;-75
2022/07/03 03:11:49;;;;;;;0.70;0.60;;;19.60;37.70;;;;;;5138123;27;20851;-74
2022/07/03 03:14:21;;;;;;;0.67;0.43;;;19.60;99.90;;;;;;5137974;27;20547;-74
2022/07/03 03:16:52;;;;;;;0.70;0.50;;;19.60;99.90;;;;;;5137824;27;20915;-75
2022/07/03 03:19:22;;;;;;;0.87;0.50;;;19.50;1.00;;;;;;5138316;27;20466;-75
2022/07/03 03:21:58;;;;;;;0.80;0.50;;;19.40;99.90;;;;;;5137538;27;20436;-75
2022/07/03 03:24:26;;;;;;;0.80;0.60;;;19.30;1.00;;;;;;5131773;27;20534;-75
2022/07/03 03:26:54;;;;;;;0.80;0.50;;;19.30;99.90;;;;;;5138126;27;20590;-75
2022/07/03 03:29:21;;;;;;;0.57;0.40;;;19.40;99.90;;;;;;5138468;27;20871;-75
2022/07/03 03:31:49;;;;;;;0.80;0.60;;;19.40;1.00;;;;;;5135912;27;20479;-75
2022/07/03 03:34:18;;;;;;;0.87;0.50;;;19.50;1.00;;;;;;5130099;27;20443;-75
2022/07/03 03:36:45;;;;;;;1.73;0.50;;;19.50;1.00;;;;;;5137231;27;20470;-75
2022/07/03 03:39:13;;;;;;;0.70;0.50;;;19.40;1.00;;;;;;5137554;27;20444;-75
2022/07/03 03:41:40;;;;;;;2.50;0.60;;;19.40;1.00;;;;;;5137729;28;20846;-75
2022/07/03 03:44:06;;;;;;;0.80;0.60;;;19.30;1.00;;;;;;5128574;27;20528;-75
2022/07/03 03:46:33;;;;;;;0.70;0.50;;;19.30;1.00;;;;;;5137162;27;20590;-75
2022/07/03 03:49:02;;;;;;;0.70;0.50;;;19.40;1.00;;;;;;5138039;27;20762;-75
2022/07/03 03:51:29;;;;;;;0.70;0.50;;;19.40;99.90;;;;;;5137607;27;20910;-75
2022/07/03 03:53:56;;;;;;;0.80;0.47;;;19.40;1.00;;;;;;5137395;27;20514;-74
2022/07/03 03:56:23;;;;;;;0.50;0.40;;;19.40;99.90;;;;;;5137733;27;20467;-74
2022/07/03 03:58:50;;;;;;;0.60;0.40;;;19.30;99.90;;;;;;5136843;27;20475;-74
2022/07/03 04:01:17;;;;;;;0.60;0.47;;;19.20;1.00;;;;;;5137239;27;20848;-75
2022/07/03 04:03:44;;;;;;;0.90;0.57;;;19.20;1.00;;;;;;5137307;27;20479;-75
2022/07/03 04:06:12;;;;;;;0.60;0.40;;;19.20;99.90;;;;;;5136918;27;20480;-74
2022/07/03 04:08:39;;;;;;;0.60;0.53;;;19.40;1.00;;;;;;5137047;27;20558;-74
2022/07/03 04:11:06;;;;;;;0.60;0.50;;;19.50;1.00;;;;;;5137346;27;20514;-74
2022/07/03 04:13:33;;;;;;;0.60;0.50;;;19.40;1.00;;;;;;5140919;27;20447;-74
2022/07/03 04:16:00;;;;;;;0.80;0.50;;;19.40;99.90;;;;;;5140275;27;20486;-75
2022/07/03 04:18:27;;;;;;;0.53;0.40;;;19.40;1.00;;;;;;5140752;27;20758;-74
2022/07/03 04:20:54;;;;;;;0.60;0.40;;;19.30;1.00;;;;;;5140972;27;20436;-74
2022/07/03 04:23:22;;;;;;;3.10;0.50;;;19.40;1.00;;;;;;5141384;27;20459;-75
2022/07/03 04:25:49;;;;;;;0.70;0.40;;;19.30;25.60;;;;;;5141009;27;20828;-75
2022/07/03 04:28:16;;;;;;;0.83;0.50;;;19.40;1.00;;;;;;5140886;27;20455;-75
2022/07/03 04:30:43;;;;;;;0.73;0.47;;;19.40;1.00;;;;;;5140752;27;20444;-75
2022/07/03 04:33:10;;;;;;;0.50;0.40;;;19.50;1.00;;;;;;5141065;27;20541;-75
2022/07/03 04:35:38;;;;;;;0.90;0.50;;;19.50;99.90;;;;;;5140681;27;20482;-74
2022/07/03 04:38:05;;;;;;;1.20;0.40;;;19.60;99.90;;;;;;5140711;27;20813;-75
2022/07/03 04:40:33;;;;;;;0.70;0.60;;;19.60;66.80;;;;;;5140274;27;20878;-75
2022/07/03 04:43:00;;;;;;;0.60;0.40;;;19.60;99.90;;;;;;5138980;27;20550;-74
2022/07/03 04:45:27;;;;;;;0.70;0.50;;;19.70;1.00;;;;;;5138780;27;20534;-74
2022/07/03 04:47:54;;;;;;;0.60;0.50;;;19.70;99.90;;;;;;5139328;27;20557;-75
2022/07/03 04:50:21;;;;;;;0.60;0.50;;;19.70;1.00;;;;;;5138104;27;20479;-75
2022/07/03 04:52:48;;;;;;;0.90;0.50;;;19.80;1.00;;;;;;5138483;27;20972;-75
2022/07/03 04:55:14;;;;;;;1.17;0.50;;;19.80;1.00;;;;;;5139561;27;20522;-74
2022/07/03 04:57:43;;;;;;;0.60;0.40;;;19.80;1.00;;;;;;5140001;27;20487;-74
2022/07/03 05:00:10;;;;;;;0.60;0.50;;;19.80;99.90;;;;;;5140037;27;20518;-74
2022/07/03 05:02:37;;;;;;;0.60;0.50;;;19.90;99.90;;;;;;5139508;27;20909;-74
2022/07/03 05:05:05;;;;;;;0.80;0.50;;;19.90;24.30;;;;;;5141132;27;20455;-74
2022/07/03 05:07:32;;;;;;;0.67;0.50;;;19.90;1.00;;;;;;5140712;27;20578;-74
2022/07/03 05:09:59;;;;;;;0.70;0.50;;;20.00;99.90;;;;;;5140879;27;20530;-74
2022/07/03 05:12:26;;;;;;;0.60;0.40;;;20.00;1.00;;;;;;5140308;27;20882;-73
2022/07/03 05:14:55;;;;;;;0.50;0.40;;;20.10;99.90;;;;;;5140482;27;20883;-74
2022/07/03 05:17:22;;;;;;;0.53;0.40;;;20.20;50.30;;;;;;5139733;27;20483;-74
2022/07/03 05:20:23;;;;;;;0.50;0.40;;;20.30;1.00;;;;;;5139910;27;20554;-74
2022/07/03 05:22:35;;;;;;;0.70;0.40;;;20.30;1.00;;;;;;5139661;27;20541;-74
2022/07/03 05:25:02;;;;;;;0.50;0.40;;;20.30;1.00;;;;;;5139568;27;20464;-74
2022/07/03 05:27:29;;;;;;;0.50;0.40;;;20.40;99.90;;;;;;5138954;27;20519;-74
2022/07/03 05:29:58;;;;;;;1.20;0.43;;;20.40;99.90;;;;;;5138582;27;20807;-74
2022/07/03 05:32:24;;;;;;;0.53;0.33;;;20.50;99.90;;;;;;5138378;27;20459;-74
2022/07/03 05:34:51;;;;;;;0.70;0.50;;;20.60;99.90;;;;;;5138532;27;20471;-74
2022/07/03 05:37:18;;;;;;;0.50;0.40;;;20.60;1.00;;;;;;5138581;27;20479;-73
2022/07/03 05:39:45;;;;;;;0.57;0.40;;;20.60;1.00;;;;;;5138338;27;20528;-73
2022/07/03 05:42:12;;;;;;;0.60;0.43;;;20.60;1.00;;;;;;5138028;27;20542;-73
2022/07/03 05:44:39;;;;;;;0.70;0.50;;;20.70;1.00;;;;;;5139218;27;20436;-73
2022/07/03 05:47:07;;;;;;;0.70;0.50;;;20.70;1.00;;;;;;5139763;27;20515;-72
2022/07/03 05:49:36;;;;;;;0.50;0.50;;;20.80;1.00;;;;;;5140225;27;20934;-75
2022/07/03 05:52:04;;;;;;;1.17;0.40;;;20.90;1.00;;;;;;5139149;27;20459;-72
2022/07/03 05:54:31;;;;;;;1.17;0.40;;;20.90;1.00;;;;;;5138152;27;20479;-72
2022/07/03 05:56:58;;;;;;;0.60;0.40;;;20.90;1.00;;;;;;5138304;27;20699;-72
2022/07/03 05:59:24;;;;;;;0.73;0.40;;;21.00;1.00;;;;;;5139764;27;20523;-72
2022/07/03 06:01:51;;;;;;;0.40;0.30;;;21.10;1.00;;;;;;5138119;27;20824;-72
2022/07/03 06:04:20;;;;;;;0.57;0.40;;;21.20;1.00;;;;;;5137580;27;20826;-72
2022/07/03 06:06:46;;;;;;;0.50;0.40;;;21.30;1.00;;;;;;5137867;27;20526;-72
2022/07/03 06:09:13;;;;;;;0.70;0.50;;;21.40;1.00;;;;;;5138232;27;20950;-72
2022/07/03 06:11:40;;;;;;;0.80;0.43;;;21.40;99.90;;;;;;5138849;27;20487;-74
2022/07/03 06:14:07;;;;;;;0.40;0.30;;;21.50;99.90;;;;;;5137501;27;20775;-72
2022/07/03 06:16:34;;;;;;;0.40;0.33;;;21.60;99.90;;;;;;5137923;27;20518;-72
2022/07/03 06:19:01;;;;;;;0.50;0.40;;;21.70;66.80;;;;;;5137395;27;20460;-72
2022/07/03 06:21:29;;;;;;;0.50;0.40;;;21.80;1.00;;;;;;5137565;27;20475;-72
2022/07/03 06:23:56;;;;;;;0.70;0.40;;;21.80;1.00;;;;;;5138028;27;20772;-73
2022/07/03 06:26:26;;;;;;;0.50;0.40;;;21.90;1.00;;;;;;5138199;27;20479;-72
2022/07/03 06:28:53;;;;;;;0.60;0.43;;;22.10;1.00;;;;;;5138493;27;20452;-71
2022/07/03 06:31:20;;;;;;;0.50;0.40;;;22.10;1.00;;;;;;5137889;27;20455;-72
2022/07/03 06:33:47;;;;;;;0.60;0.40;;;22.20;1.00;;;;;;5138371;27;20898;-72
2022/07/03 06:36:14;;;;;;;0.60;0.40;;;22.20;99.90;;;;;;5138302;27;20476;-72
2022/07/03 06:38:42;;;;;;;0.40;0.40;;;22.20;99.90;;;;;;5138420;27;20491;-72
2022/07/03 06:41:09;;;;;;;1.23;0.40;;;22.30;99.90;;;;;;5138355;27;20818;-72
2022/07/03 06:43:36;;;;;;;0.50;0.30;;;22.40;99.90;;;;;;5138478;27;21068;-72
2022/07/03 06:46:03;;;;;;;0.50;0.30;;;22.50;99.90;;;;;;5138081;27;20917;-72
2022/07/03 06:48:30;;;;;;;0.60;0.47;;;22.60;91.50;;;;;;5138331;27;20479;-73
2022/07/03 06:50:56;;;;;;;0.40;0.30;;;22.70;17.10;;;;;;5137408;27;20452;-71
2022/07/03 06:53:23;;;;;;;0.50;0.40;;;22.80;1.00;;;;;;5120458;27;20508;-72
2022/07/03 06:55:52;;;;;;;3.90;0.30;;;22.90;1.00;;;;;;5117724;28;20445;-72
2022/07/03 06:58:18;;;;;;;0.50;0.30;;;23.00;1.00;;;;;;5120068;27;20829;-72
2022/07/03 07:00:45;;;;;;;1.67;0.37;;;23.10;1.00;;;;;;5137654;27;20491;-71
2022/07/03 07:03:12;;;;;;;0.50;0.30;;;23.20;1.00;;;;;;5137796;27;20476;-71
2022/07/03 07:05:39;;;;;;;0.50;0.30;;;23.30;1.00;;;;;;5136814;27;20875;-72
2022/07/03 07:08:06;;;;;;;0.50;0.30;;;23.40;1.00;;;;;;5130029;27;20852;-72
2022/07/03 07:10:33;;;;;;;1.77;0.30;;;23.50;1.00;;;;;;5138708;27;20944;-72
2022/07/03 07:13:01;;;;;;;0.80;0.40;;;23.60;1.00;;;;;;5137604;27;20483;-72
2022/07/03 07:15:28;;;;;;;0.40;0.30;;;23.70;1.00;;;;;;5137369;27;20803;-72
2022/07/03 07:17:55;;;;;;;0.70;0.37;;;23.70;1.00;;;;;;5136497;27;20982;-72
2022/07/03 07:20:22;;;;;;;0.50;0.30;;;23.80;1.00;;;;;;5136178;27;20581;-71
2022/07/03 07:22:49;;;;;;;0.50;0.30;;;23.80;1.00;;;;;;5135793;27;20905;-72
2022/07/03 07:25:16;;;;;;;0.40;0.30;;;23.90;1.00;;;;;;5137197;27;20531;-72
2022/07/03 07:27:43;;;;;;;0.97;0.40;;;23.90;1.00;;;;;;5135793;27;20578;-73
2022/07/03 07:30:11;;;;;;;0.60;0.40;;;24.00;1.00;;;;;;5118770;27;20467;-73
2022/07/03 07:32:38;;;;;;;0.60;0.33;;;24.10;1.00;;;;;;5115579;28;20687;-72
2022/07/03 07:35:06;;;;;;;0.50;0.30;;;24.20;1.00;;;;;;5115443;28;20792;-72
2022/07/03 07:37:33;;;;;;;0.40;0.30;;;24.20;1.00;;;;;;5115882;28;20440;-72
2022/07/03 07:40:00;;;;;;;0.40;0.27;;;24.20;1.00;;;;;;5115412;28;20816;-72
2022/07/03 07:42:27;;;;;;;0.47;0.30;;;24.30;1.00;;;;;;5118728;27;20534;-72
2022/07/03 07:44:54;;;;;;;0.40;0.30;;;24.40;1.00;;;;;;5127376;27;20725;-72
2022/07/03 07:47:23;;;;;;;0.50;0.30;;;24.50;1.00;;;;;;5138550;27;20487;-72
2022/07/03 07:49:50;;;;;;;0.40;0.30;;;24.50;1.00;;;;;;5140465;27;20763;-73
2022/07/03 07:52:17;;;;;;;0.50;0.40;;;24.50;1.00;;;;;;5140048;27;20546;-72
2022/07/03 07:54:44;;;;;;;0.50;0.30;;;24.60;1.00;;;;;;5140748;27;20538;-73
2022/07/03 07:57:11;;;;;;;0.40;0.27;;;24.60;1.00;;;;;;5141265;27;20479;-72
2022/07/03 07:59:37;;;;;;;0.33;0.30;;;24.60;1.00;;;;;;5141302;27;20518;-72
2022/07/03 08:07:34;;;;;;;0.40;0.30;;;24.80;1.00;;;;;;5139066;27;20494;-71
2022/07/03 08:10:01;;;;;;;0.70;0.30;;;24.80;1.00;;;;;;5139856;27;20533;-71
2022/07/03 08:12:28;;;;;;;0.40;0.20;;;24.90;1.00;;;;;;5140748;27;20558;-71
2022/07/03 08:14:55;;;;;;;0.40;0.20;;;24.90;1.00;;;;;;5140652;27;20482;-72
2022/07/03 08:17:22;;;;;;;0.50;0.30;;;24.90;1.00;;;;;;5140140;27;20492;-73
2022/07/03 08:19:50;;;;;;;1.00;0.40;;;25.00;1.00;;;;;;5140042;27;20922;-73
2022/07/03 08:22:17;;;;;;;1.80;0.30;;;25.10;1.00;;;;;;5137907;27;20558;-74
2022/07/03 08:24:44;;;;;;;0.30;0.20;;;25.20;1.00;;;;;;5140015;27;20443;-73
2022/07/03 08:27:11;;;;;;;0.47;0.30;;;25.30;1.00;;;;;;5139615;27;20854;-71
2022/07/03 08:29:38;;;;;;;0.50;0.40;;;25.30;1.00;;;;;;5135025;27;21053;-70
2022/07/03 08:32:07;;;;;;;0.40;0.20;;;25.40;1.00;;;;;;5128068;27;20456;-73
2022/07/03 08:34:34;;;;;;;0.40;0.27;;;25.50;1.00;;;;;;5132260;27;20444;-73
2022/07/03 08:37:03;;;;;;;1.33;0.20;;;25.40;1.00;;;;;;5136229;27;20807;-70
2022/07/03 08:39:33;;;;;;;0.30;0.20;;;25.40;1.00;;;;;;5138637;27;20444;-72
2022/07/03 08:42:00;;;;;;;5.10;0.40;;;25.40;1.00;;;;;;5138672;27;20448;-72
2022/07/03 08:44:28;;;;;;;0.40;0.20;;;25.60;1.00;;;;;;5138099;27;20452;-72
2022/07/03 08:46:57;;;;;;;0.40;0.20;;;25.60;1.00;;;;;;5139388;27;20439;-72
2022/07/03 08:49:24;;;;;;;0.40;0.20;;;25.60;1.00;;;;;;5137130;27;20448;-72
2022/07/03 08:51:54;;;;;;;0.83;0.40;;;25.70;1.00;;;;;;5139295;27;20807;-72
2022/07/03 08:54:22;;;;;;;0.40;0.30;;;25.80;1.00;;;;;;5139739;27;20507;-73
2022/07/03 08:56:50;;;;;;;1.17;0.23;;;25.90;1.00;;;;;;5138375;27;20869;-73
2022/07/03 08:59:18;;;;;;;0.80;0.30;;;26.00;1.00;;;;;;5137081;27;20797;-73
2022/07/03 09:01:47;;;;;;;0.40;0.30;;;26.10;1.00;;;;;;5139717;27;20440;-73
2022/07/03 09:04:14;;;;;;;0.40;0.30;;;26.10;1.00;;;;;;5140244;27;20444;-73
2022/07/03 09:06:43;;;;;;;0.80;0.40;;;26.20;1.00;;;;;;5138543;27;20482;-73
2022/07/03 09:09:10;;;;;;;0.40;0.20;;;26.30;1.00;;;;;;5140607;27;20848;-72
2022/07/03 09:11:39;;;;;;;0.33;0.20;;;26.40;1.00;;;;;;5139206;27;20480;-72
2022/07/03 09:14:07;;;;;;;0.30;0.20;;;26.70;1.00;;;;;;5130338;27;20459;-73
2022/07/03 09:19:39;;;;;;;0.30;0.20;;;26.80;1.00;;;;;;5098665;27;20458;-72
2022/07/03 09:22:19;;;;;;;1.43;0.30;;;26.70;1.00;;;;;;5128860;27;20460;-72
2022/07/03 09:24:46;;;;;;;0.40;0.20;;;26.70;1.00;;;;;;5135584;27;20490;-71
2022/07/03 09:27:18;;;;;;;0.40;0.20;;;26.70;1.00;;;;;;5138984;27;20950;-72
2022/07/03 09:30:00;;;;;;;0.40;0.30;;;26.80;1.00;;;;;;5139710;27;20996;-72
2022/07/03 09:32:31;;;;;;;0.40;0.20;;;26.70;1.00;;;;;;5139187;27;20463;-72
2022/07/03 09:35:20;;;;;;;0.40;0.20;;;26.90;1.00;;;;;;5139391;27;20443;-71
2022/07/03 09:37:52;;;;;;;0.43;0.30;;;26.70;1.00;;;;;;5133129;27;20919;-71
2022/07/03 09:40:19;;;;;;;0.40;0.23;;;26.70;1.00;;;;;;5137935;27;20535;-71
2022/07/03 09:43:03;;;;;;;0.93;0.30;;;26.50;1.00;;;;;;5138158;27;20758;-72
2022/07/03 09:45:52;;;;;;;0.40;0.23;;;26.70;1.00;;;;;;5136800;27;20452;-72
2022/07/03 09:48:24;;;;;;;0.30;0.20;;;26.90;1.00;;;;;;5138384;27;20542;-72
2022/07/03 09:51:08;;;;;;;0.40;0.30;;;26.80;1.00;;;;;;5133562;27;20499;-71
2022/07/03 09:53:45;;;;;;;0.40;0.20;;;26.80;1.00;;;;;;5131913;27;20570;-73
2022/07/03 09:56:12;;;;;;;0.40;0.20;;;26.90;1.00;;;;;;5124687;27;20518;-73
2022/07/03 09:58:41;;;;;;;0.40;0.30;;;26.90;1.00;;;;;;5131446;27;20480;-73
2022/07/03 10:01:18;;;;;;;0.40;0.20;;;26.70;1.00;;;;;;5132204;27;20467;-73
2022/07/03 10:03:45;;;;;;;0.37;0.20;;;26.80;1.00;;;;;;5127598;27;20478;-73
2022/07/03 10:06:12;;;;;;;0.40;0.30;;;27.20;1.00;;;;;;5137144;27;20475;-72
2022/07/03 10:08:40;;;;;;;0.87;0.30;;;27.50;1.00;;;;;;5136863;27;20563;-72
2022/07/03 10:11:07;;;;;;;0.43;0.30;;;27.80;1.00;;;;;;5121255;27;20823;-72
2022/07/03 10:13:38;;;;;;;0.60;0.30;;;28.10;1.00;;;;;;5137158;27;20452;-72
2022/07/03 10:16:07;;;;;;;0.30;0.20;;;27.90;1.00;;;;;;5137984;27;20444;-72
2022/07/03 10:18:39;;;;;;;0.50;0.30;;;27.70;1.00;;;;;;5137933;27;20444;-74
2022/07/03 10:21:07;;;;;;;0.40;0.27;;;27.70;1.00;;;;;;5138046;27;20434;-75
2022/07/03 10:23:35;;;;;;;0.37;0.30;;;28.00;1.00;;;;;;5136631;27;20505;-74
2022/07/03 10:26:02;;;;;;;0.40;0.20;;;28.40;1.00;;;;;;5137602;27;20515;-74
2022/07/03 10:28:32;;;;;;;0.40;0.30;;;28.60;1.00;;;;;;5138054;27;20585;-75
2022/07/03 10:31:00;;;;;;;0.40;0.30;;;28.80;1.00;;;;;;5136659;27;20557;-74
2022/07/03 10:33:31;;;;;;;0.50;0.30;;;28.60;1.00;;;;;;5137541;27;20890;-74
2022/07/03 10:36:00;;;;;;;0.50;0.30;;;28.60;1.00;;;;;;5135443;27;20452;-75
2022/07/03 10:38:39;;;;;;;0.60;0.40;;;28.90;1.00;;;;;;5137202;27;20550;-74
2022/07/03 10:46:40;;;;;;;0.40;0.30;;;30.60;1.00;;;;;;5137486;27;20423;-74
2022/07/03 10:49:10;;;;;;;0.40;0.30;;;31.30;1.00;;;;;;5137639;27;20511;-75
2022/07/03 10:51:54;;;;;;;0.30;0.20;;;31.90;1.00;;;;;;5137719;27;20448;-74
2022/07/03 10:54:23;;;;;;;0.50;0.30;;;32.10;1.00;;;;;;5137308;27;20563;-75
2022/07/03 10:57:17;;;;;;;0.40;0.30;;;32.40;1.00;;;;;;5136346;27;20877;-74
2022/07/03 11:00:05;;;;;;;0.40;0.20;;;32.20;1.00;;;;;;5136420;27;20928;-74
2022/07/03 11:02:35;;;;;;;0.60;0.30;;;32.50;1.00;;;;;;5136590;27;20909;-74
2022/07/03 11:05:19;;;;;;;0.30;0.30;;;32.50;1.00;;;;;;5137535;27;20895;-76
2022/07/03 11:08:09;;;;;;;0.40;0.20;;;32.10;1.00;;;;;;5136663;27;20483;-74
2022/07/03 11:10:40;;;;;;;0.37;0.20;;;32.20;1.00;;;;;;5137650;27;20503;-74
2022/07/03 11:13:20;;;;;;;0.40;0.23;;;32.00;1.00;;;;;;5130043;27;20959;-74
2022/07/03 11:15:50;;;;;;;1.37;0.30;;;32.10;1.00;;;;;;5137884;27;20457;-73
2022/07/03 11:18:25;;;;;;;0.80;0.50;;;32.60;1.00;;;;;;5137644;27;20451;-74
2022/07/03 11:21:25;;;;;;;0.50;0.40;;;33.00;1.00;;;;;;5126888;27;20926;-74
2022/07/03 11:24:25;;;;;;;1.53;0.20;;;32.70;1.00;;;;;;5137259;27;20459;-73
2022/07/03 11:27:15;;;;;;;0.40;0.20;;;32.60;1.00;;;;;;5136611;27;20530;-73
2022/07/03 11:29:54;;;;;;;0.90;0.50;;;32.10;1.00;;;;;;5136491;27;20882;-73
2022/07/03 11:32:50;;;;;;;0.33;0.20;;;32.00;1.00;;;;;;5135022;27;20466;-72
2022/07/03 11:35:50;;;;;;;0.30;0.20;;;31.80;1.00;;;;;;5135525;27;20926;-72
2022/07/03 11:38:22;;;;;;;0.53;0.30;;;32.10;1.00;;;;;;5135443;27;20493;-72
2022/07/03 11:40:51;;;;;;;0.40;0.30;;;32.60;1.00;;;;;;5136717;27;20436;-73
2022/07/03 11:43:18;;;;;;;0.30;0.20;;;32.70;1.00;;;;;;5127634;27;20451;-73
2022/07/03 11:45:49;;;;;;;0.40;0.30;;;32.80;1.00;;;;;;5135327;27;20454;-72
2022/07/03 11:48:18;;;;;;;0.50;0.30;;;32.70;1.00;;;;;;5124265;27;21140;-72
2022/07/03 11:50:48;;;;;;;0.63;0.30;;;32.90;1.00;;;;;;5135883;27;20458;-73
2022/07/03 11:53:24;;;;;;;0.50;0.30;;;32.60;1.00;;;;;;5135560;28;20484;-73
2022/07/03 11:55:54;;;;;;;0.50;0.30;;;32.40;1.00;;;;;;5135741;28;20825;-73
2022/07/03 11:58:21;;;;;;;0.40;0.30;;;31.20;1.00;;;;;;5118405;28;20449;-73
2022/07/03 12:00:50;;;;;;;0.43;0.33;;;30.70;1.00;;;;;;5133279;27;20471;-74
2022/07/03 12:03:23;;;;;;;0.50;0.33;;;30.60;1.00;;;;;;5134907;28;20542;-73
2022/07/03 12:05:58;;;;;;;1.10;0.40;;;30.60;1.00;;;;;;5127694;27;20452;-72
2022/07/03 12:08:32;;;;;;;0.50;0.30;;;31.00;1.00;;;;;;5137317;27;20483;-73
2022/07/03 12:11:01;;;;;;;0.57;0.27;;;32.10;1.00;;;;;;5138912;27;20444;-73
2022/07/03 12:13:31;;;;;;;0.40;0.27;;;32.80;1.00;;;;;;5137692;27;20550;-73
2022/07/03 12:16:09;;;;;;;0.40;0.30;;;32.90;1.00;;;;;;5138146;27;20500;-74
2022/07/03 12:18:48;;;;;;;0.50;0.30;;;32.20;1.00;;;;;;5136334;27;20538;-73
2022/07/03 12:21:15;;;;;;;0.40;0.20;;;31.50;1.00;;;;;;5141366;27;20502;-73
2022/07/03 12:23:47;;;;;;;0.40;0.30;;;30.70;1.00;;;;;;5136659;27;20550;-73
2022/07/03 12:26:15;;;;;;;0.50;0.37;;;30.80;1.00;;;;;;5134380;27;20493;-73
2022/07/03 12:28:42;;;;;;;0.50;0.40;;;31.30;1.00;;;;;;5135977;27;20548;-73
2022/07/03 12:31:09;;;;;;;0.50;0.30;;;31.70;1.00;;;;;;5136427;27;20463;-73
2022/07/03 12:33:37;;;;;;;0.60;0.33;;;32.20;1.00;;;;;;5139750;27;20448;-73
2022/07/03 12:36:05;;;;;;;0.40;0.30;;;32.40;1.00;;;;;;5139697;27;20871;-73
2022/07/03 12:38:33;;;;;;;0.40;0.30;;;32.20;1.00;;;;;;5138957;27;20546;-72
2022/07/03 12:41:12;;;;;;;0.60;0.40;;;32.30;1.00;;;;;;5138469;27;20479;-75
2022/07/03 12:43:40;;;;;;;0.40;0.30;;;32.30;1.00;;;;;;5136041;27;20530;-72
2022/07/03 12:46:20;;;;;;;0.50;0.27;;;32.40;1.00;;;;;;5137134;27;20479;-74
2022/07/03 12:48:49;;;;;;;1.37;0.30;;;32.10;1.00;;;;;;5135595;27;20573;-74
2022/07/03 12:51:16;;;;;;;1.13;0.27;;;32.00;1.00;;;;;;5133941;27;20536;-72
2022/07/03 12:53:43;;;;;;;1.10;0.57;;;31.50;1.00;;;;;;5134641;27;20571;-74
2022/07/03 12:56:12;;;;;;;0.40;0.30;;;31.50;1.00;;;;;;5126184;27;20440;-74
2022/07/03 13:01:26;;;;;;;0.50;0.30;;;32.30;1.00;;;;;;5136900;27;20980;-74
2022/07/03 13:03:53;;;;;;;0.40;0.30;;;33.00;1.00;;;;;;5135832;27;20490;-75
2022/07/03 13:06:22;;;;;;;0.40;0.30;;;33.30;1.00;;;;;;5135870;27;20494;-75
2022/07/03 13:08:54;;;;;;;0.40;0.30;;;33.60;1.00;;;;;;5137123;27;20481;-74
2022/07/03 13:11:31;;;;;;;0.40;0.30;;;33.20;1.00;;;;;;5136331;27;20958;-74
2022/07/03 13:14:06;;;;;;;0.30;0.20;;;32.90;1.00;;;;;;5137419;27;20758;-74
2022/07/03 13:16:42;;;;;;;0.60;0.30;;;32.20;1.00;;;;;;5137293;27;20486;-73
2022/07/03 13:19:10;;;;;;;0.50;0.30;;;32.40;1.00;;;;;;5136907;27;20446;-73
2022/07/03 13:21:37;;;;;;;0.50;0.30;;;32.10;1.00;;;;;;5136508;27;20828;-73
2022/07/03 13:24:05;;;;;;;0.50;0.30;;;32.10;1.00;;;;;;5135993;27;20458;-74
2022/07/03 13:26:34;;;;;;;0.47;0.30;;;32.50;1.00;;;;;;5135118;27;20444;-73
2022/07/03 13:29:01;;;;;;;0.40;0.30;;;32.90;1.00;;;;;;5136339;27;20849;-74